Time;durP1;ratioP1;P1;durP2;ratioP2;P2;SDS_P1;SDS_P2;PMS_P1;PMS_P2;Temp;Humidity;BMP_temperature;BMP_pressure;BME280_temperature;BME280_humidity;BME280_pressure;Samples;Min_cycle;Max_cycle;Signal;HPM_P1;HPM_P2
2022/09/28 00:01:52;;;;;;;4.22;1.20;;;;;;;;;;4983910;28;20030;-78
2022/09/28 00:04:19;;;;;;;4.93;1.20;;;;;;;;;;4985030;28;20041;-79
2022/09/28 00:06:46;;;;;;;4.72;1.23;;;;;;;;;;4984649;28;20023;-80
2022/09/28 00:09:11;;;;;;;3.78;1.20;;;;;;;;;;4985136;28;20119;-79
2022/09/28 00:11:37;;;;;;;5.38;1.30;;;;;;;;;;4985162;28;20023;-81
2022/09/28 00:14:02;;;;;;;3.00;1.05;;;;;;;;;;4985195;28;20044;-80
2022/09/28 00:16:31;;;;;;;5.18;1.20;;;;;;;;;;4983388;28;20057;-79
2022/09/28 00:18:57;;;;;;;5.13;1.35;;;;;;;;;;4984931;28;20033;-80
2022/09/28 00:21:31;;;;;;;5.05;1.30;;;;;;;;;;4984780;28;20038;-80
2022/09/28 00:24:14;;;;;;;8.75;1.80;;;;;;;;;;4985053;28;20086;-79
2022/09/28 00:26:47;;;;;;;5.40;1.33;;;;;;;;;;4984881;28;20187;-79
2022/09/28 00:29:22;;;;;;;12.40;1.63;;;;;;;;;;4984932;28;20023;-78
2022/09/28 00:31:51;;;;;;;7.93;1.77;;;;;;;;;;4982047;28;20314;-78
2022/09/28 00:34:16;;;;;;;7.68;1.33;;;;;;;;;;4984697;28;20011;-79
2022/09/28 00:36:44;;;;;;;8.98;1.70;;;;;;;;;;4984493;28;20094;-81
2022/09/28 00:39:11;;;;;;;7.43;1.60;;;;;;;;;;4984581;28;20029;-77
2022/09/28 00:41:36;;;;;;;6.20;1.38;;;;;;;;;;4978522;28;20037;-79
2022/09/28 00:44:24;;;;;;;8.43;1.85;;;;;;;;;;4980212;28;20015;-78
2022/09/28 00:47:07;;;;;;;8.15;1.55;;;;;;;;;;4981271;28;20035;-79
2022/09/28 00:49:49;;;;;;;6.15;1.45;;;;;;;;;;4984443;28;20023;-79
2022/09/28 00:52:20;;;;;;;7.57;1.50;;;;;;;;;;4978265;28;20023;-79
2022/09/28 00:54:46;;;;;;;8.52;1.73;;;;;;;;;;4979560;28;20019;-80
2022/09/28 00:57:13;;;;;;;7.18;1.55;;;;;;;;;;4979371;28;20042;-79
2022/09/28 00:59:39;;;;;;;9.75;1.50;;;;;;;;;;4984106;28;20097;-79
2022/09/28 01:02:05;;;;;;;8.65;1.50;;;;;;;;;;4983021;28;20029;-78
2022/09/28 01:04:30;;;;;;;6.50;1.40;;;;;;;;;;4984247;28;20027;-79
2022/09/28 01:06:57;;;;;;;8.68;1.67;;;;;;;;;;4983719;28;20034;-79
2022/09/28 01:09:24;;;;;;;5.95;1.45;;;;;;;;;;4983971;28;20049;-79
2022/09/28 01:11:50;;;;;;;9.60;2.35;;;;;;;;;;4983997;28;20030;-79
2022/09/28 01:14:16;;;;;;;5.50;1.58;;;;;;;;;;4983748;28;20481;-80
2022/09/28 01:17:09;;;;;;;9.65;1.80;;;;;;;;;;4984010;28;20098;-79
2022/09/28 01:20:04;;;;;;;8.00;2.05;;;;;;;;;;4979402;28;20094;-79
2022/09/28 01:22:41;;;;;;;7.90;1.60;;;;;;;;;;4979301;28;20193;-80
2022/09/28 01:25:15;;;;;;;6.63;1.70;;;;;;;;;;4980263;28;20271;-80
2022/09/28 01:27:56;;;;;;;6.57;1.67;;;;;;;;;;4980978;28;20223;-81
2022/09/28 01:30:22;;;;;;;8.75;2.17;;;;;;;;;;4983787;28;20035;-80
2022/09/28 01:32:59;;;;;;;9.35;1.83;;;;;;;;;;4983356;28;20238;-79
2022/09/28 01:35:34;;;;;;;5.18;1.67;;;;;;;;;;4983006;28;20030;-80
2022/09/28 01:38:05;;;;;;;6.28;1.38;;;;;;;;;;4983728;28;20031;-80
2022/09/28 01:40:33;;;;;;;6.10;1.55;;;;;;;;;;4983498;28;20037;-81
2022/09/28 01:43:07;;;;;;;8.70;1.80;;;;;;;;;;4983266;28;20035;-79
2022/09/28 01:45:39;;;;;;;6.88;1.80;;;;;;;;;;4983144;28;20019;-80
2022/09/28 01:48:07;;;;;;;7.07;1.75;;;;;;;;;;4983348;28;20023;-80
2022/09/28 01:50:36;;;;;;;6.60;1.70;;;;;;;;;;4977275;28;20323;-80
2022/09/28 01:53:10;;;;;;;7.50;1.60;;;;;;;;;;4983188;28;20058;-81
2022/09/28 01:55:45;;;;;;;7.32;1.40;;;;;;;;;;4976379;28;20038;-80
2022/09/28 01:58:17;;;;;;;9.15;1.85;;;;;;;;;;4981698;28;20045;-79
2022/09/28 02:00:47;;;;;;;5.75;1.48;;;;;;;;;;4983165;28;20030;-79
2022/09/28 02:03:20;;;;;;;7.75;1.40;;;;;;;;;;4983125;28;20069;-81
2022/09/28 02:05:57;;;;;;;4.65;1.40;;;;;;;;;;4982845;28;20038;-80
2022/09/28 02:08:27;;;;;;;7.68;1.88;;;;;;;;;;4982669;28;20054;-80
2022/09/28 02:11:04;;;;;;;6.60;1.67;;;;;;;;;;4983289;28;20310;-78
2022/09/28 02:13:37;;;;;;;6.82;1.55;;;;;;;;;;4982574;28;20049;-80
2022/09/28 02:16:12;;;;;;;6.13;1.35;;;;;;;;;;4976574;28;20255;-80
2022/09/28 02:18:38;;;;;;;5.82;1.40;;;;;;;;;;4982270;28;20034;-80
2022/09/28 02:21:24;;;;;;;7.65;1.73;;;;;;;;;;4981280;28;20073;-80
2022/09/28 02:23:57;;;;;;;7.07;1.50;;;;;;;;;;4982398;28;20031;-80
2022/09/28 02:26:29;;;;;;;6.38;1.67;;;;;;;;;;4982730;28;20354;-79
2022/09/28 02:28:54;;;;;;;9.30;1.70;;;;;;;;;;4982663;28;20094;-80
2022/09/28 02:31:20;;;;;;;9.07;1.55;;;;;;;;;;4981469;28;20057;-80
2022/09/28 02:33:46;;;;;;;12.18;1.92;;;;;;;;;;4982619;28;20214;-81
2022/09/28 02:36:12;;;;;;;5.78;1.40;;;;;;;;;;4979813;28;20026;-82
2022/09/28 02:38:38;;;;;;;6.78;1.60;;;;;;;;;;4982384;28;20042;-80
2022/09/28 02:41:32;;;;;;;7.30;1.67;;;;;;;;;;4982349;28;20015;-80
2022/09/28 02:44:40;;;;;;;5.45;1.60;;;;;;;;;;4965114;28;20044;-79
2022/09/28 02:47:23;;;;;;;5.60;1.52;;;;;;;;;;4981922;28;20031;-80
2022/09/28 02:50:12;;;;;;;6.60;1.70;;;;;;;;;;4976324;28;20030;-81
2022/09/28 02:52:59;;;;;;;5.95;1.60;;;;;;;;;;4980123;28;20049;-80
2022/09/28 02:55:49;;;;;;;8.60;2.00;;;;;;;;;;4982170;28;20019;-80
2022/09/28 02:58:39;;;;;;;9.50;1.55;;;;;;;;;;4976953;28;20077;-80
2022/09/28 03:01:21;;;;;;;7.70;1.70;;;;;;;;;;4981116;28;20310;-81
2022/09/28 03:03:52;;;;;;;6.70;1.60;;;;;;;;;;4979770;28;20046;-80
2022/09/28 03:06:23;;;;;;;7.30;1.48;;;;;;;;;;4981664;28;20097;-80
2022/09/28 03:09:12;;;;;;;8.10;1.65;;;;;;;;;;4980134;28;20394;-80
2022/09/28 03:11:49;;;;;;;10.38;1.92;;;;;;;;;;4981942;28;20098;-80
2022/09/28 03:14:15;;;;;;;4.72;1.50;;;;;;;;;;4979785;28;20069;-80
2022/09/28 03:16:45;;;;;;;8.65;2.03;;;;;;;;;;4981982;28;20115;-82
2022/09/28 03:19:11;;;;;;;10.73;1.90;;;;;;;;;;4978713;28;20045;-80
2022/09/28 03:21:37;;;;;;;5.95;1.20;;;;;;;;;;4979988;28;20129;-81
2022/09/28 03:24:03;;;;;;;9.57;1.92;;;;;;;;;;4981800;28;20311;-80
2022/09/28 03:26:28;;;;;;;4.88;1.65;;;;;;;;;;4981597;28;20046;-80
2022/09/28 03:28:54;;;;;;;8.15;1.50;;;;;;;;;;4981373;28;20090;-80
2022/09/28 03:31:19;;;;;;;6.35;1.50;;;;;;;;;;4981310;28;20026;-80
2022/09/28 03:33:44;;;;;;;6.55;1.50;;;;;;;;;;4980309;28;20151;-81
2022/09/28 03:36:10;;;;;;;6.15;1.77;;;;;;;;;;4980474;28;20023;-80
2022/09/28 03:38:35;;;;;;;7.47;1.50;;;;;;;;;;4979942;28;20023;-81
2022/09/28 03:41:01;;;;;;;5.97;1.55;;;;;;;;;;4981700;28;20030;-80
2022/09/28 03:43:27;;;;;;;7.55;1.70;;;;;;;;;;4981531;28;20057;-81
2022/09/28 03:45:57;;;;;;;5.50;1.50;;;;;;;;;;4981691;28;20380;-81
2022/09/28 03:48:24;;;;;;;7.50;1.60;;;;;;;;;;4981402;28;20039;-82
2022/09/28 03:50:54;;;;;;;8.15;1.70;;;;;;;;;;4980902;28;20097;-79
2022/09/28 03:53:20;;;;;;;7.55;2.00;;;;;;;;;;4980241;28;20034;-80
2022/09/28 03:55:45;;;;;;;8.25;1.70;;;;;;;;;;4981734;28;20034;-81
2022/09/28 03:58:10;;;;;;;9.43;1.60;;;;;;;;;;4981363;28;20034;-81
2022/09/28 04:00:38;;;;;;;5.88;1.63;;;;;;;;;;4981105;28;20077;-80
2022/09/28 04:03:04;;;;;;;7.28;1.70;;;;;;;;;;4981401;28;20057;-80
2022/09/28 04:05:29;;;;;;;6.00;1.88;;;;;;;;;;4981145;28;20019;-81
2022/09/28 04:07:56;;;;;;;6.32;1.88;;;;;;;;;;4981567;28;20058;-81
2022/09/28 04:10:22;;;;;;;6.57;1.67;;;;;;;;;;4980872;28;20039;-80
2022/09/28 04:12:48;;;;;;;10.25;1.83;;;;;;;;;;4981349;28;20223;-80
2022/09/28 04:15:14;;;;;;;11.40;2.10;;;;;;;;;;4980062;28;20216;-79
2022/09/28 04:17:39;;;;;;;8.90;2.00;;;;;;;;;;4975883;28;20086;-79
2022/09/28 04:20:05;;;;;;;8.98;1.85;;;;;;;;;;4980587;28;20031;-80
2022/09/28 04:22:31;;;;;;;10.52;1.80;;;;;;;;;;4981439;28;20029;-79
2022/09/28 04:24:57;;;;;;;8.00;1.92;;;;;;;;;;4981321;28;20019;-80
2022/09/28 04:30:07;;;;;;;7.13;2.00;;;;;;;;;;4981232;28;20371;-80
2022/09/28 04:32:32;;;;;;;9.30;1.88;;;;;;;;;;4980391;28;20034;-79
2022/09/28 04:34:57;;;;;;;7.40;1.77;;;;;;;;;;4980867;28;20023;-80
2022/09/28 04:37:23;;;;;;;9.57;2.42;;;;;;;;;;4981746;28;20027;-79
2022/09/28 04:39:48;;;;;;;6.07;2.03;;;;;;;;;;4984678;28;20046;-79
2022/09/28 04:42:13;;;;;;;7.85;1.85;;;;;;;;;;4984127;28;20050;-79
2022/09/28 04:44:38;;;;;;;7.70;1.80;;;;;;;;;;4984387;28;20046;-80
2022/09/28 04:47:04;;;;;;;8.60;1.80;;;;;;;;;;4978339;28;20019;-80
2022/09/28 04:49:30;;;;;;;10.85;2.17;;;;;;;;;;4977913;28;20097;-80
2022/09/28 04:51:55;;;;;;;9.13;2.10;;;;;;;;;;4984080;28;20027;-80
2022/09/28 04:54:20;;;;;;;13.18;2.58;;;;;;;;;;4984353;28;20030;-79
2022/09/28 04:56:46;;;;;;;11.15;2.10;;;;;;;;;;4982359;28;20046;-79
2022/09/28 04:59:12;;;;;;;8.35;1.92;;;;;;;;;;4984183;28;20046;-79
2022/09/28 05:01:37;;;;;;;6.38;1.90;;;;;;;;;;4983084;28;20086;-80
2022/09/28 05:04:02;;;;;;;8.80;2.13;;;;;;;;;;4984118;28;20074;-80
2022/09/28 05:06:29;;;;;;;11.18;2.28;;;;;;;;;;4984139;28;20023;-80
2022/09/28 05:08:56;;;;;;;7.45;2.05;;;;;;;;;;4983661;28;20429;-79
2022/09/28 05:11:21;;;;;;;7.05;1.90;;;;;;;;;;4984067;28;20046;-79
2022/09/28 05:13:49;;;;;;;8.20;2.03;;;;;;;;;;4983462;28;20052;-79
2022/09/28 05:16:15;;;;;;;8.05;2.08;;;;;;;;;;4984013;28;20222;-79
2022/09/28 05:18:40;;;;;;;9.50;2.20;;;;;;;;;;4983607;28;20042;-80
2022/09/28 05:21:14;;;;;;;9.07;2.08;;;;;;;;;;4983773;28;20119;-79
2022/09/28 05:23:40;;;;;;;7.43;2.03;;;;;;;;;;4981961;28;20038;-79
2022/09/28 05:26:06;;;;;;;10.52;2.30;;;;;;;;;;4983666;28;20063;-80
2022/09/28 05:28:32;;;;;;;10.13;2.80;;;;;;;;;;4982538;28;20227;-80
2022/09/28 05:30:59;;;;;;;10.07;2.40;;;;;;;;;;4983254;28;20019;-79
2022/09/28 05:33:24;;;;;;;7.68;1.95;;;;;;;;;;4983286;28;20041;-80
2022/09/28 05:35:50;;;;;;;7.72;2.17;;;;;;;;;;4983330;28;20023;-80
2022/09/28 05:38:15;;;;;;;8.18;2.20;;;;;;;;;;4983443;28;20038;-79
2022/09/28 05:40:40;;;;;;;7.43;2.30;;;;;;;;;;4983182;28;20022;-81
2022/09/28 05:43:06;;;;;;;7.35;2.00;;;;;;;;;;4983088;28;20022;-81
2022/09/28 05:45:31;;;;;;;5.13;2.50;;;;;;;;;;4983340;28;20042;-79
2022/09/28 05:47:59;;;;;;;13.93;2.90;;;;;;;;;;4983304;28;20215;-79
2022/09/28 05:50:24;;;;;;;11.27;2.40;;;;;;;;;;4982752;28;20459;-79
2022/09/28 05:53:05;;;;;;;10.90;2.20;;;;;;;;;;4982944;28;20046;-80
2022/09/28 05:55:31;;;;;;;8.30;2.00;;;;;;;;;;4982178;28;20026;-79
2022/09/28 05:57:58;;;;;;;7.32;2.20;;;;;;;;;;4976953;28;20035;-80
2022/09/28 06:00:23;;;;;;;9.77;2.28;;;;;;;;;;4974247;28;20106;-85
2022/09/28 06:03:03;;;;;;;8.88;2.67;;;;;;;;;;4974532;28;20030;-77
2022/09/28 06:05:30;;;;;;;9.50;2.28;;;;;;;;;;4980876;28;20030;-79
2022/09/28 06:07:56;;;;;;;10.35;2.60;;;;;;;;;;4983149;28;20019;-80
2022/09/28 06:10:23;;;;;;;6.50;2.38;;;;;;;;;;4982970;28;20098;-79
2022/09/28 06:12:54;;;;;;;6.97;2.33;;;;;;;;;;4982966;28;20023;-79
2022/09/28 06:15:25;;;;;;;20.38;2.85;;;;;;;;;;4982695;28;20077;-81
2022/09/28 06:18:10;;;;;;;12.57;2.63;;;;;;;;;;4982662;28;20034;-74
2022/09/28 06:20:40;;;;;;;5.97;2.00;;;;;;;;;;4982396;28;20031;-74
2022/09/28 06:23:10;;;;;;;7.95;2.30;;;;;;;;;;4982656;28;20361;-79
2022/09/28 06:25:35;;;;;;;9.52;2.70;;;;;;;;;;4981882;28;20030;-78
2022/09/28 06:28:09;;;;;;;9.43;2.90;;;;;;;;;;4982907;28;20033;-79
2022/09/28 06:30:37;;;;;;;9.18;2.70;;;;;;;;;;4982253;28;20042;-77
2022/09/28 06:33:05;;;;;;;10.60;3.25;;;;;;;;;;4980196;28;20507;-77
2022/09/28 06:35:31;;;;;;;9.10;3.00;;;;;;;;;;4976449;28;20027;-81
2022/09/28 06:38:00;;;;;;;10.90;2.97;;;;;;;;;;4982491;28;20045;-78
2022/09/28 06:40:26;;;;;;;10.00;2.95;;;;;;;;;;4982383;28;20219;-77
2022/09/28 06:42:56;;;;;;;12.88;3.17;;;;;;;;;;4982556;28;20333;-77
2022/09/28 06:45:24;;;;;;;9.30;2.80;;;;;;;;;;4982075;28;20019;-77
2022/09/28 06:47:57;;;;;;;7.85;2.53;;;;;;;;;;4982529;28;20063;-77
2022/09/28 06:50:34;;;;;;;9.02;2.85;;;;;;;;;;4976796;28;20035;-77
2022/09/28 06:53:00;;;;;;;11.43;3.08;;;;;;;;;;4977696;28;20025;-78
2022/09/28 06:55:27;;;;;;;8.20;3.33;;;;;;;;;;4981995;28;20085;-77
2022/09/28 06:58:03;;;;;;;12.55;3.30;;;;;;;;;;4981713;28;20037;-79
2022/09/28 07:00:32;;;;;;;8.55;3.20;;;;;;;;;;4976538;28;20042;-81
2022/09/28 07:02:58;;;;;;;9.68;3.10;;;;;;;;;;4982386;28;20251;-77
2022/09/28 07:05:27;;;;;;;11.10;3.53;;;;;;;;;;4980517;28;20031;-81
2022/09/28 07:07:56;;;;;;;10.82;3.40;;;;;;;;;;4982017;28;20227;-77
2022/09/28 07:10:23;;;;;;;12.63;3.75;;;;;;;;;;4981696;28;20275;-77
2022/09/28 07:12:50;;;;;;;10.07;3.50;;;;;;;;;;4981623;28;20058;-77
2022/09/28 07:15:15;;;;;;;11.73;3.60;;;;;;;;;;4980258;28;20027;-82
2022/09/28 07:17:41;;;;;;;9.38;3.30;;;;;;;;;;4980752;28;20150;-81
2022/09/28 07:20:06;;;;;;;8.60;3.40;;;;;;;;;;4980327;28;20030;-76
2022/09/28 07:22:32;;;;;;;11.85;3.40;;;;;;;;;;4981919;28;20026;-78
2022/09/28 07:24:57;;;;;;;7.47;3.40;;;;;;;;;;4981966;28;20022;-77
2022/09/28 07:27:23;;;;;;;12.95;3.28;;;;;;;;;;4980014;28;20023;-77
2022/09/28 07:29:48;;;;;;;11.38;3.30;;;;;;;;;;4981445;28;20026;-79
2022/09/28 07:32:14;;;;;;;12.40;3.20;;;;;;;;;;4981538;28;20030;-76
2022/09/28 07:34:42;;;;;;;11.02;3.50;;;;;;;;;;4981716;28;20042;-76
2022/09/28 07:37:10;;;;;;;16.35;3.25;;;;;;;;;;4981900;28;20395;-80
2022/09/28 07:41:10;;;;;;;16.40;3.10;;;;;;;;;;4981358;28;20037;-76
2022/09/28 07:42:23;;;;;;;10.52;2.90;;;;;;;;;;4980500;28;20050;-77
2022/09/28 07:44:48;;;;;;;13.15;2.40;;;;;;;;;;4981826;28;20101;-80
2022/09/28 07:47:14;;;;;;;8.90;1.90;;;;;;;;;;4981486;28;20019;-78
2022/09/28 07:49:39;;;;;;;12.07;2.60;;;;;;;;;;4981160;28;20337;-78
2022/09/28 07:52:05;;;;;;;10.48;2.60;;;;;;;;;;4980622;28;20045;-78
2022/09/28 07:54:30;;;;;;;13.40;2.80;;;;;;;;;;4980695;28;20026;-86
2022/09/28 07:56:55;;;;;;;8.52;2.10;;;;;;;;;;4981732;28;20250;-76
2022/09/28 07:59:21;;;;;;;9.32;2.03;;;;;;;;;;4980606;28;20033;-79
2022/09/28 08:01:48;;;;;;;8.90;2.45;;;;;;;;;;4981193;28;20037;-73
2022/09/28 08:04:14;;;;;;;7.95;2.33;;;;;;;;;;4981610;28;20091;-76
2022/09/28 08:06:39;;;;;;;12.23;2.38;;;;;;;;;;4981139;28;20049;-80
2022/09/28 08:09:05;;;;;;;38.28;3.20;;;;;;;;;;4980675;28;20077;-81
2022/09/28 08:11:30;;;;;;;10.07;2.20;;;;;;;;;;4981374;28;20092;-77
2022/09/28 08:13:56;;;;;;;10.88;1.92;;;;;;;;;;4984603;28;20019;-78
2022/09/28 08:16:23;;;;;;;10.52;2.30;;;;;;;;;;4985047;28;20061;-76
2022/09/28 08:18:48;;;;;;;6.50;1.88;;;;;;;;;;4985061;28;20033;-78
2022/09/28 08:23:57;;;;;;;7.88;1.95;;;;;;;;;;4978654;28;20042;-77
2022/09/28 08:26:23;;;;;;;7.28;1.92;;;;;;;;;;4984727;28;20034;-75
2022/09/28 08:28:49;;;;;;;9.93;2.22;;;;;;;;;;4979427;28;20027;-80
2022/09/28 08:31:14;;;;;;;10.15;2.35;;;;;;;;;;4980293;28;20038;-76
2022/09/28 08:33:40;;;;;;;7.07;1.70;;;;;;;;;;4981166;28;21050;-88
2022/09/28 08:36:07;;;;;;;8.38;1.63;;;;;;;;;;4976220;28;20015;-89
2022/09/28 08:38:33;;;;;;;7.05;1.58;;;;;;;;;;4979947;28;20288;-77
2022/09/28 08:41:15;;;;;;;8.32;1.98;;;;;;;;;;4976729;28;20027;-84
2022/09/28 08:44:02;;;;;;;6.15;1.90;;;;;;;;;;4974231;28;20027;-76
2022/09/28 08:46:35;;;;;;;5.10;2.05;;;;;;;;;;4973039;28;20022;-76
2022/09/28 08:49:09;;;;;;;7.18;1.65;;;;;;;;;;4981131;28;20230;-75
2022/09/28 08:51:49;;;;;;;8.65;1.55;;;;;;;;;;4980594;28;20319;-81
2022/09/28 08:54:27;;;;;;;6.13;1.55;;;;;;;;;;4969817;28;20311;-76
2022/09/28 08:57:09;;;;;;;5.47;1.70;;;;;;;;;;4975883;28;20052;-75
2022/09/28 08:59:54;;;;;;;4.55;1.20;;;;;;;;;;4979300;28;20090;-85
2022/09/28 09:02:25;;;;;;;;;;;;;;;;;;4983944;28;20023;-77
2022/09/28 09:04:51;;;;;;;8.57;2.45;;;;;;;;;;4977822;28;19925;-78
2022/09/28 09:07:32;;;;;;;3.15;1.20;;;;;;;;;;4974211;28;20030;-86
2022/09/28 09:10:15;;;;;;;4.22;1.10;;;;;;;;;;4979757;28;20354;-86
2022/09/28 09:13:02;;;;;;;8.55;1.70;;;;;;;;;;4976117;28;20027;-76
2022/09/28 09:15:42;;;;;;;7.05;1.30;;;;;;;;;;4982057;28;20026;-77
2022/09/28 09:18:21;;;;;;;5.53;1.50;;;;;;;;;;4978527;28;20097;-76
2022/09/28 09:20:54;;;;;;;5.72;1.50;;;;;;;;;;4976922;28;20062;-76
2022/09/28 09:23:39;;;;;;;8.25;1.80;;;;;;;;;;4973777;28;20086;-77
2022/09/28 09:26:38;;;;;;;4.80;1.23;;;;;;;;;;4979128;28;20223;-85
2022/09/28 09:29:35;;;;;;;4.32;1.30;;;;;;;;;;4974217;28;20348;-76
2022/09/28 09:32:19;;;;;;;6.00;1.50;;;;;;;;;;4975236;28;20046;-77
2022/09/28 09:34:47;;;;;;;4.38;1.30;;;;;;;;;;4974830;28;20039;-81
2022/09/28 09:37:18;;;;;;;5.30;1.40;;;;;;;;;;4976837;28;20026;-76
2022/09/28 09:39:54;;;;;;;7.70;1.58;;;;;;;;;;4973729;28;20035;-77
2022/09/28 09:42:27;;;;;;;9.95;1.73;;;;;;;;;;4979465;28;20034;-77
2022/09/28 09:45:20;;;;;;;3.10;1.10;;;;;;;;;;4980678;28;20035;-82
2022/09/28 09:47:55;;;;;;;7.20;1.40;;;;;;;;;;4994210;28;20323;-75
2022/09/28 09:50:38;;;;;;;6.55;1.60;;;;;;;;;;4981384;28;20019;-75
2022/09/28 09:53:22;;;;;;;6.53;1.70;;;;;;;;;;4983407;28;20035;-75
2022/09/28 09:55:56;;;;;;;10.63;2.30;;;;;;;;;;4983047;28;20030;-76
2022/09/28 09:58:30;;;;;;;7.05;2.00;;;;;;;;;;4980968;28;20094;-76
2022/09/28 10:01:05;;;;;;;7.83;1.93;;;;;;;;;;4971679;28;20222;-75
2022/09/28 10:03:33;;;;;;;4.78;1.48;;;;;;;;;;4982587;28;20077;-76
2022/09/28 10:06:10;;;;;;;6.78;1.77;;;;;;;;;;4979639;28;20214;-75
2022/09/28 10:08:49;;;;;;;7.30;1.58;;;;;;;;;;4982229;28;20077;-76
2022/09/28 10:11:19;;;;;;;9.40;1.60;;;;;;;;;;4976917;28;20051;-80
2022/09/28 10:13:48;;;;;;;5.28;1.35;;;;;;;;;;4981006;28;20089;-78
2022/09/28 10:16:16;;;;;;;9.38;1.55;;;;;;;;;;4975544;28;20099;-86
2022/09/28 10:18:42;;;;;;;6.20;1.30;;;;;;;;;;4977938;28;20039;-76
2022/09/28 10:21:12;;;;;;;5.70;1.33;;;;;;;;;;4978449;28;20031;-82
2022/09/28 10:23:38;;;;;;;4.90;1.23;;;;;;;;;;4980716;28;20038;-81
2022/09/28 10:26:25;;;;;;;7.30;1.30;;;;;;;;;;4977831;28;20046;-84
2022/09/28 10:28:55;;;;;;;2.92;0.95;;;;;;;;;;4979375;28;20409;-85
2022/09/28 10:31:33;;;;;;;5.85;1.30;;;;;;;;;;4979186;28;20218;-81
2022/09/28 10:33:58;;;;;;;4.53;1.20;;;;;;;;;;4982517;28;20022;-82
2022/09/28 10:36:25;;;;;;;6.22;1.25;;;;;;;;;;4980538;28;20065;-77
2022/09/28 10:38:51;;;;;;;6.30;1.58;;;;;;;;;;4980998;28;20319;-83
2022/09/28 10:41:17;;;;;;;5.88;1.30;;;;;;;;;;4981457;28;20023;-78
2022/09/28 10:44:05;;;;;;;4.03;1.17;;;;;;;;;;4974570;28;20034;-83
2022/09/28 10:46:33;;;;;;;7.30;1.48;;;;;;;;;;4981998;28;20019;-75
2022/09/28 10:49:10;;;;;;;3.80;1.20;;;;;;;;;;4981745;28;20210;-83
2022/09/28 10:51:48;;;;;;;3.97;1.10;;;;;;;;;;4981554;28;20058;-82
2022/09/28 10:54:19;;;;;;;3.83;1.33;;;;;;;;;;4982023;28;20026;-83
2022/09/28 10:56:46;;;;;;;3.20;1.20;;;;;;;;;;4978345;28;20073;-78
2022/09/28 10:59:30;;;;;;;5.90;1.30;;;;;;;;;;4981789;28;20031;-74
2022/09/28 11:01:56;;;;;;;4.57;1.10;;;;;;;;;;4980077;28;20023;-76
2022/09/28 11:04:26;;;;;;;5.35;1.35;;;;;;;;;;4981582;28;20041;-81
2022/09/28 11:06:53;;;;;;;6.32;1.40;;;;;;;;;;4981884;28;20061;-75
2022/09/28 11:09:33;;;;;;;4.85;1.30;;;;;;;;;;4980073;28;20050;-75
2022/09/28 11:12:02;;;;;;;6.85;1.50;;;;;;;;;;4978643;28;20314;-84
2022/09/28 11:14:36;;;;;;;6.45;1.30;;;;;;;;;;4981237;28;20034;-87
2022/09/28 11:17:31;;;;;;;4.18;1.20;;;;;;;;;;4981322;28;20065;-81
2022/09/28 11:19:59;;;;;;;5.82;1.40;;;;;;;;;;4974833;28;20042;-77
2022/09/28 11:22:40;;;;;;;5.60;1.60;;;;;;;;;;4980762;28;20053;-73
2022/09/28 11:25:15;;;;;;;4.47;1.20;;;;;;;;;;4977958;28;20098;-78
2022/09/28 11:27:41;;;;;;;8.15;1.42;;;;;;;;;;4976609;28;20339;-84
2022/09/28 11:30:20;;;;;;;4.90;1.38;;;;;;;;;;4977380;28;20080;-78
2022/09/28 11:32:46;;;;;;;7.20;1.10;;;;;;;;;;4972873;28;20033;-76
2022/09/28 11:35:21;;;;;;;4.07;1.40;;;;;;;;;;4970399;28;20223;-73
2022/09/28 11:38:08;;;;;;;5.70;1.70;;;;;;;;;;4971722;28;20027;-76
2022/09/28 11:41:13;;;;;;;6.03;1.50;;;;;;;;;;4976851;28;20043;-76
2022/09/28 11:44:05;;;;;;;4.93;1.40;;;;;;;;;;4973756;28;20042;-82
2022/09/28 11:46:36;;;;;;;5.35;1.30;;;;;;;;;;4974132;28;20023;-85
2022/09/28 11:49:42;;;;;;;10.20;2.35;;;;;;;;;;4983620;28;20014;-73
2022/09/28 11:52:54;;;;;;;7.93;1.38;;;;;;;;;;4979839;28;20093;-73
2022/09/28 11:55:41;;;;;;;5.50;1.27;;;;;;;;;;4919992;29;20035;-73
2022/09/28 11:58:34;;;;;;;5.88;1.30;;;;;;;;;;4925628;29;20103;-74
2022/09/28 12:01:09;;;;;;;4.43;1.20;;;;;;;;;;4968479;28;20183;-78
2022/09/28 12:03:41;;;;;;;5.60;1.30;;;;;;;;;;4980529;28;20027;-75
2022/09/28 12:06:17;;;;;;;9.57;1.50;;;;;;;;;;4984378;28;20291;-74
2022/09/28 12:08:50;;;;;;;4.63;1.10;;;;;;;;;;4984766;28;20074;-76
2022/09/28 12:11:22;;;;;;;6.10;1.33;;;;;;;;;;4985433;28;20089;-77
2022/09/28 12:13:52;;;;;;;6.10;1.30;;;;;;;;;;4984549;28;20030;-75
2022/09/28 12:16:24;;;;;;;5.88;1.45;;;;;;;;;;4985531;28;20023;-76
2022/09/28 12:18:55;;;;;;;5.55;1.45;;;;;;;;;;4985089;28;20226;-83
2022/09/28 12:21:23;;;;;;;7.03;1.40;;;;;;;;;;4978518;28;20050;-77
2022/09/28 12:23:50;;;;;;;5.00;1.35;;;;;;;;;;4985189;28;20311;-76
2022/09/28 12:26:37;;;;;;;5.88;1.40;;;;;;;;;;4985130;28;20023;-84
2022/09/28 12:29:12;;;;;;;6.57;1.42;;;;;;;;;;4981198;28;20034;-75
2022/09/28 12:31:50;;;;;;;7.40;1.50;;;;;;;;;;4984566;28;20129;-83
2022/09/28 12:34:16;;;;;;;4.22;1.20;;;;;;;;;;4984703;28;20039;-76
2022/09/28 12:36:53;;;;;;;7.15;1.60;;;;;;;;;;4984128;28;20076;-75
2022/09/28 12:39:40;;;;;;;2.47;1.15;;;;;;;;;;4984730;28;20080;-75
2022/09/28 12:42:08;;;;;;;4.00;1.35;;;;;;;;;;4979981;28;20066;-76
2022/09/28 12:45:10;;;;;;;7.20;1.70;;;;;;;;;;4982915;28;20090;-76
2022/09/28 12:48:14;;;;;;;9.15;1.88;;;;;;;;;;4982717;28;20230;-76
2022/09/28 12:50:46;;;;;;;6.70;1.40;;;;;;;;;;4977910;28;20056;-75
2022/09/28 12:53:29;;;;;;;5.65;1.30;;;;;;;;;;4983604;28;20218;-78
2022/09/28 12:56:02;;;;;;;5.10;1.20;;;;;;;;;;4981296;28;20164;-77
2022/09/28 12:58:30;;;;;;;5.28;1.33;;;;;;;;;;4983555;28;20044;-77
2022/09/28 13:01:14;;;;;;;5.00;1.50;;;;;;;;;;4983654;28;20019;-74
2022/09/28 13:04:07;;;;;;;6.68;1.30;;;;;;;;;;4980376;28;20316;-74
2022/09/28 13:06:41;;;;;;;9.05;1.60;;;;;;;;;;4977818;28;20041;-74
2022/09/28 13:09:22;;;;;;;3.40;1.40;;;;;;;;;;4983087;28;20049;-75
2022/09/28 13:12:14;;;;;;;6.25;1.40;;;;;;;;;;4978775;28;20492;-74
2022/09/28 13:14:58;;;;;;;6.00;1.60;;;;;;;;;;4983395;28;20516;-75
2022/09/28 13:17:43;;;;;;;4.95;1.58;;;;;;;;;;4979863;28;20058;-76
2022/09/28 13:20:14;;;;;;;8.02;1.88;;;;;;;;;;4981007;28;20452;-76
2022/09/28 13:22:48;;;;;;;3.22;1.52;;;;;;;;;;4983893;28;20031;-74
2022/09/28 13:25:16;;;;;;;5.18;1.30;;;;;;;;;;4983803;28;20023;-74
2022/09/28 13:28:03;;;;;;;3.45;1.10;;;;;;;;;;4983623;28;20098;-74
2022/09/28 13:30:31;;;;;;;4.25;1.25;;;;;;;;;;4977157;28;20039;-74
2022/09/28 13:32:59;;;;;;;3.10;1.13;;;;;;;;;;4969788;28;20033;-75
2022/09/28 13:35:26;;;;;;;3.33;1.08;;;;;;;;;;4969367;28;20024;-74
2022/09/28 13:38:16;;;;;;;2.72;1.20;;;;;;;;;;4977253;28;20026;-77
2022/09/28 13:41:03;;;;;;;4.88;1.20;;;;;;;;;;4982504;28;20031;-76
2022/09/28 13:44:06;;;;;;;3.67;1.30;;;;;;;;;;4976701;28;20061;-74
2022/09/28 13:46:44;;;;;;;5.30;1.50;;;;;;;;;;4979503;28;20027;-75
2022/09/28 13:49:28;;;;;;;5.93;1.40;;;;;;;;;;4974308;28;20240;-77
2022/09/28 13:52:33;;;;;;;4.55;1.40;;;;;;;;;;4986838;28;20373;-75
2022/09/28 13:55:31;;;;;;;3.55;1.20;;;;;;;;;;4977101;28;20022;-75
2022/09/28 13:58:04;;;;;;;2.60;1.20;;;;;;;;;;4974350;28;20073;-74
2022/09/28 14:00:44;;;;;;;4.30;1.20;;;;;;;;;;4983470;28;20030;-74
2022/09/28 14:03:22;;;;;;;4.93;1.10;;;;;;;;;;4981440;28;20221;-73
2022/09/28 14:06:06;;;;;;;5.13;1.20;;;;;;;;;;4972338;28;20031;-74
2022/09/28 14:08:44;;;;;;;2.10;1.00;;;;;;;;;;4981125;28;20074;-74
2022/09/28 14:11:33;;;;;;;5.05;1.20;;;;;;;;;;4982977;28;20050;-74
2022/09/28 14:14:04;;;;;;;5.35;1.10;;;;;;;;;;4982791;28;20094;-75
2022/09/28 14:16:32;;;;;;;4.47;1.27;;;;;;;;;;4975115;28;20031;-75
2022/09/28 14:19:00;;;;;;;4.75;1.35;;;;;;;;;;4977378;28;20030;-74
2022/09/28 14:21:43;;;;;;;3.05;1.10;;;;;;;;;;4978139;28;20078;-74
2022/09/28 14:24:12;;;;;;;4.80;1.33;;;;;;;;;;4975933;28;20034;-75
2022/09/28 14:27:10;;;;;;;3.05;1.10;;;;;;;;;;4982094;28;20022;-75
2022/09/28 14:29:38;;;;;;;3.45;1.00;;;;;;;;;;4971375;28;20031;-75
2022/09/28 14:32:24;;;;;;;3.28;1.10;;;;;;;;;;4967378;28;20026;-76
2022/09/28 14:34:59;;;;;;;5.35;1.30;;;;;;;;;;4968100;28;20034;-75
2022/09/28 14:43:26;;;;;;;3.58;1.38;;;;;;;;;;4971466;28;20344;-77
2022/09/28 14:46:10;;;;;;;3.50;1.40;;;;;;;;;;4965356;28;20027;-75
2022/09/28 14:48:56;;;;;;;1.80;1.10;;;;;;;;;;4969163;28;20091;-75
2022/09/28 14:51:25;;;;;;;;;;;;;;;;;;4970548;28;20027;-81
2022/09/28 14:53:51;;;;;;;3.75;1.23;;;;;;;;;;4967540;28;19919;-74
2022/09/28 14:56:18;;;;;;;2.92;1.20;;;;;;;;;;4970740;28;20094;-76
2022/09/28 14:58:45;;;;;;;4.28;1.30;;;;;;;;;;4969247;28;20323;-77
2022/09/28 15:01:19;;;;;;;4.82;1.30;;;;;;;;;;4968281;28;20026;-77
2022/09/28 15:03:49;;;;;;;3.47;1.30;;;;;;;;;;4966136;28;20037;-76
2022/09/28 15:06:15;;;;;;;4.60;1.30;;;;;;;;;;4973875;28;20257;-75
2022/09/28 15:08:41;;;;;;;2.72;1.25;;;;;;;;;;4981170;28;20467;-74
2022/09/28 15:11:14;;;;;;;5.05;1.40;;;;;;;;;;4981994;28;20030;-75
2022/09/28 15:13:41;;;;;;;3.25;1.40;;;;;;;;;;4981840;28;20023;-76
2022/09/28 15:16:10;;;;;;;3.38;1.40;;;;;;;;;;4979112;28;20058;-75
2022/09/28 15:18:57;;;;;;;3.20;1.30;;;;;;;;;;4980118;28;20200;-75
2022/09/28 15:21:30;;;;;;;2.70;1.20;;;;;;;;;;4973987;28;20014;-77
2022/09/28 15:23:55;;;;;;;3.30;1.40;;;;;;;;;;4979873;28;20041;-74
2022/09/28 15:26:27;;;;;;;3.33;1.40;;;;;;;;;;4980074;28;20038;-79